Time;durP1;ratioP1;P1;durP2;ratioP2;P2;SDS_P1;SDS_P2;PMS_P1;PMS_P2;Temp;Humidity;BMP_temperature;BMP_pressure;BME280_temperature;BME280_humidity;BME280_pressure;Samples;Min_cycle;Max_cycle;Signal;HPM_P1;HPM_P2
2021/03/16 00:00:19;;;;;;;16.4;11.4;;;;;;;1.47;100;95033.59;;;;
2021/03/16 00:01:21;;;;;;;16.4;11.4;;;;;;;1.47;100;95033.59;;;;
2021/03/16 00:02:21;;;;;;;16.4;11.4;;;;;;;1.47;100;95033.59;;;;
2021/03/16 00:03:22;;;;;;;16.4;11.4;;;;;;;1.47;100;95033.59;;;;
2021/03/16 00:04:22;;;;;;;16.4;11.4;;;;;;;1.47;100;95033.59;;;;
2021/03/16 00:05:23;;;;;;;16.4;11.4;;;;;;;1.47;100;95033.59;;;;
2021/03/16 00:06:23;;;;;;;16.4;11.4;;;;;;;1.47;100;95033.59;;;;
2021/03/16 00:07:24;;;;;;;16.4;11.4;;;;;;;1.47;100;95033.59;;;;
2021/03/16 00:08:25;;;;;;;16.4;11.4;;;;;;;1.47;100;95033.59;;;;
2021/03/16 00:09:25;;;;;;;16.4;11.4;;;;;;;1.47;100;95033.59;;;;
2021/03/16 00:10:26;;;;;;;17.15;11.15;;;;;;;1.52;100;95052.47;;;;
2021/03/16 00:11:26;;;;;;;17.15;11.15;;;;;;;1.52;100;95052.47;;;;
2021/03/16 00:12:27;;;;;;;17.15;11.15;;;;;;;1.52;100;95052.47;;;;
2021/03/16 00:13:27;;;;;;;17.15;11.15;;;;;;;1.52;100;95052.47;;;;
2021/03/16 00:14:28;;;;;;;17.15;11.15;;;;;;;1.52;100;95052.47;;;;
2021/03/16 00:15:28;;;;;;;17.15;11.15;;;;;;;1.52;100;95052.47;;;;
2021/03/16 00:16:29;;;;;;;17.15;11.15;;;;;;;1.52;100;95052.47;;;;
2021/03/16 00:17:30;;;;;;;17.15;11.15;;;;;;;1.52;100;95052.47;;;;
2021/03/16 00:18:31;;;;;;;17.15;11.15;;;;;;;1.52;100;95052.47;;;;
2021/03/16 00:19:31;;;;;;;17.15;11.15;;;;;;;1.52;100;95052.47;;;;
2021/03/16 00:20:32;;;;;;;17.15;11.15;;;;;;;1.52;100;95052.47;;;;
2021/03/16 00:21:33;;;;;;;15.85;10.8;;;;;;;1.58;100;95067.28;;;;
2021/03/16 00:22:33;;;;;;;15.85;10.8;;;;;;;1.58;100;95067.28;;;;
2021/03/16 00:23:34;;;;;;;15.85;10.8;;;;;;;1.58;100;95067.28;;;;
2021/03/16 00:24:34;;;;;;;15.85;10.8;;;;;;;1.58;100;95067.28;;;;
2021/03/16 00:25:35;;;;;;;15.85;10.8;;;;;;;1.58;100;95067.28;;;;
2021/03/16 00:26:35;;;;;;;15.85;10.8;;;;;;;1.58;100;95067.28;;;;
2021/03/16 00:27:36;;;;;;;15.85;10.8;;;;;;;1.58;100;95067.28;;;;
2021/03/16 00:28:37;;;;;;;15.85;10.8;;;;;;;1.58;100;95067.28;;;;
2021/03/16 00:29:37;;;;;;;15.85;10.8;;;;;;;1.58;100;95067.28;;;;
2021/03/16 00:30:38;;;;;;;15.85;10.8;;;;;;;1.58;100;95067.28;;;;
2021/03/16 00:31:38;;;;;;;18.9;11.55;;;;;;;1.63;100;95077.76;;;;
2021/03/16 00:32:39;;;;;;;18.9;11.55;;;;;;;1.63;100;95077.76;;;;
2021/03/16 00:33:39;;;;;;;18.9;11.55;;;;;;;1.63;100;95077.76;;;;
2021/03/16 00:34:40;;;;;;;18.9;11.55;;;;;;;1.63;100;95077.76;;;;
2021/03/16 00:35:40;;;;;;;18.9;11.55;;;;;;;1.63;100;95077.76;;;;
2021/03/16 00:36:41;;;;;;;18.9;11.55;;;;;;;1.63;100;95077.76;;;;
2021/03/16 00:37:41;;;;;;;18.9;11.55;;;;;;;1.63;100;95077.76;;;;
2021/03/16 00:38:42;;;;;;;18.9;11.55;;;;;;;1.63;100;95077.76;;;;
2021/03/16 00:39:42;;;;;;;18.9;11.55;;;;;;;1.63;100;95077.76;;;;
2021/03/16 00:40:43;;;;;;;18.9;11.55;;;;;;;1.63;100;95077.76;;;;
2021/03/16 00:41:43;;;;;;;18.9;11.55;;;;;;;1.63;100;95077.76;;;;
2021/03/16 00:42:44;;;;;;;17.75;11.4;;;;;;;1.67;100;95086.13;;;;
2021/03/16 00:43:46;;;;;;;17.75;11.4;;;;;;;1.67;100;95086.13;;;;
2021/03/16 00:44:47;;;;;;;17.75;11.4;;;;;;;1.67;100;95086.13;;;;
2021/03/16 00:45:47;;;;;;;17.75;11.4;;;;;;;1.67;100;95086.13;;;;
2021/03/16 00:46:48;;;;;;;17.75;11.4;;;;;;;1.67;100;95086.13;;;;
2021/03/16 00:47:48;;;;;;;17.75;11.4;;;;;;;1.67;100;95086.13;;;;
2021/03/16 00:48:49;;;;;;;17.75;11.4;;;;;;;1.67;100;95086.13;;;;
2021/03/16 00:49:49;;;;;;;17.75;11.4;;;;;;;1.67;100;95086.13;;;;
2021/03/16 00:50:50;;;;;;;17.75;11.4;;;;;;;1.67;100;95086.13;;;;
2021/03/16 00:51:52;;;;;;;17.75;11.4;;;;;;;1.67;100;95086.13;;;;
2021/03/16 00:52:53;;;;;;;14.95;10.3;;;;;;;1.7;100;95095.54;;;;
2021/03/16 00:53:53;;;;;;;14.95;10.3;;;;;;;1.7;100;95095.54;;;;
2021/03/16 00:54:54;;;;;;;14.95;10.3;;;;;;;1.7;100;95095.54;;;;
2021/03/16 00:55:54;;;;;;;14.95;10.3;;;;;;;1.7;100;95095.54;;;;
2021/03/16 00:56:55;;;;;;;14.95;10.3;;;;;;;1.7;100;95095.54;;;;
2021/03/16 00:57:55;;;;;;;14.95;10.3;;;;;;;1.7;100;95095.54;;;;
2021/03/16 00:58:56;;;;;;;14.95;10.3;;;;;;;1.7;100;95095.54;;;;
2021/03/16 00:59:56;;;;;;;14.95;10.3;;;;;;;1.7;100;95095.54;;;;
2021/03/16 01:00:57;;;;;;;14.95;10.3;;;;;;;1.7;100;95095.54;;;;
2021/03/16 01:01:59;;;;;;;14.95;10.3;;;;;;;1.7;100;95095.54;;;;
2021/03/16 01:03:00;;;;;;;14.95;10.3;;;;;;;1.7;100;95095.54;;;;
2021/03/16 01:04:00;;;;;;;17.45;9.799999;;;;;;;1.72;100;95096.61;;;;
2021/03/16 01:05:01;;;;;;;17.45;9.799999;;;;;;;1.72;100;95096.61;;;;
2021/03/16 01:06:02;;;;;;;17.45;9.799999;;;;;;;1.72;100;95096.61;;;;
2021/03/16 01:07:04;;;;;;;17.45;9.799999;;;;;;;1.72;100;95096.61;;;;
2021/03/16 01:08:05;;;;;;;17.45;9.799999;;;;;;;1.72;100;95096.61;;;;
2021/03/16 01:09:05;;;;;;;17.45;9.799999;;;;;;;1.72;100;95096.61;;;;
2021/03/16 01:10:06;;;;;;;17.45;9.799999;;;;;;;1.72;100;95096.61;;;;
2021/03/16 01:11:10;;;;;;;17.45;9.799999;;;;;;;1.72;100;95096.61;;;;
2021/03/16 01:12:11;;;;;;;17.45;9.799999;;;;;;;1.72;100;95096.61;;;;
2021/03/16 01:13:12;;;;;;;17.45;9.799999;;;;;;;1.72;100;95096.61;;;;
2021/03/16 01:14:12;;;;;;;16.8;9.85;;;;;;;1.73;100;95102.66;;;;
2021/03/16 01:15:13;;;;;;;16.8;9.85;;;;;;;1.73;100;95102.66;;;;
2021/03/16 01:16:14;;;;;;;16.8;9.85;;;;;;;1.73;100;95102.66;;;;
2021/03/16 01:17:15;;;;;;;16.8;9.85;;;;;;;1.73;100;95102.66;;;;
2021/03/16 01:18:16;;;;;;;16.8;9.85;;;;;;;1.73;100;95102.66;;;;
2021/03/16 01:19:17;;;;;;;16.8;9.85;;;;;;;1.73;100;95102.66;;;;
2021/03/16 01:20:17;;;;;;;16.8;9.85;;;;;;;1.73;100;95102.66;;;;
2021/03/16 01:21:20;;;;;;;16.8;9.85;;;;;;;1.73;100;95102.66;;;;
2021/03/16 01:22:21;;;;;;;16.8;9.85;;;;;;;1.73;100;95102.66;;;;
2021/03/16 01:23:21;;;;;;;16.8;9.85;;;;;;;1.73;100;95102.66;;;;
2021/03/16 01:24:22;;;;;;;16.8;9.85;;;;;;;1.73;100;95102.66;;;;
2021/03/16 01:25:22;;;;;;;17.45;10.05;;;;;;;1.82;100;95100.2;;;;
2021/03/16 01:26:23;;;;;;;17.45;10.05;;;;;;;1.82;100;95100.2;;;;
2021/03/16 01:27:24;;;;;;;17.45;10.05;;;;;;;1.82;100;95100.2;;;;
2021/03/16 01:28:24;;;;;;;17.45;10.05;;;;;;;1.82;100;95100.2;;;;
2021/03/16 01:29:25;;;;;;;17.45;10.05;;;;;;;1.82;100;95100.2;;;;
2021/03/16 01:30:25;;;;;;;17.45;10.05;;;;;;;1.82;100;95100.2;;;;
2021/03/16 01:31:26;;;;;;;17.45;10.05;;;;;;;1.82;100;95100.2;;;;
2021/03/16 01:32:27;;;;;;;17.45;10.05;;;;;;;1.82;100;95100.2;;;;
2021/03/16 01:33:27;;;;;;;17.45;10.05;;;;;;;1.82;100;95100.2;;;;
2021/03/16 01:34:28;;;;;;;17.45;10.05;;;;;;;1.82;100;95100.2;;;;
2021/03/16 01:35:29;;;;;;;18.55;11.45;;;;;;;1.88;100;95103.96;;;;
2021/03/16 01:36:29;;;;;;;18.55;11.45;;;;;;;1.88;100;95103.96;;;;
2021/03/16 01:37:30;;;;;;;18.55;11.45;;;;;;;1.88;100;95103.96;;;;
2021/03/16 01:38:31;;;;;;;18.55;11.45;;;;;;;1.88;100;95103.96;;;;
2021/03/16 01:39:31;;;;;;;18.55;11.45;;;;;;;1.88;100;95103.96;;;;
2021/03/16 01:40:32;;;;;;;18.55;11.45;;;;;;;1.88;100;95103.96;;;;
2021/03/16 01:41:35;;;;;;;18.55;11.45;;;;;;;1.88;100;95103.96;;;;
2021/03/16 01:42:36;;;;;;;18.55;11.45;;;;;;;1.88;100;95103.96;;;;
2021/03/16 01:43:37;;;;;;;18.55;11.45;;;;;;;1.88;100;95103.96;;;;
2021/03/16 01:44:42;;;;;;;18.55;11.45;;;;;;;1.88;100;95103.96;;;;
2021/03/16 01:45:43;;;;;;;18.55;11.45;;;;;;;1.88;100;95103.96;;;;
2021/03/16 01:46:46;;;;;;;18.65;11.45;;;;;;;1.91;100;95115.58;;;;
2021/03/16 01:47:46;;;;;;;18.65;11.45;;;;;;;1.91;100;95115.58;;;;
2021/03/16 01:48:50;;;;;;;18.65;11.45;;;;;;;1.91;100;95115.58;;;;
2021/03/16 01:49:51;;;;;;;18.65;11.45;;;;;;;1.91;100;95115.58;;;;
2021/03/16 01:50:56;;;;;;;18.65;11.45;;;;;;;1.91;100;95115.58;;;;
2021/03/16 01:51:56;;;;;;;18.65;11.45;;;;;;;1.91;100;95115.58;;;;
2021/03/16 01:52:58;;;;;;;18.65;11.45;;;;;;;1.91;100;95115.58;;;;
2021/03/16 01:53:59;;;;;;;18.65;11.45;;;;;;;1.91;100;95115.58;;;;
2021/03/16 01:55:00;;;;;;;18.65;11.45;;;;;;;1.91;100;95115.58;;;;
2021/03/16 01:56:03;;;;;;;18.65;11.45;;;;;;;1.91;100;95115.58;;;;
2021/03/16 01:57:06;;;;;;;18.7;12.45;;;;;;;1.93;100;95120.11;;;;
2021/03/16 01:58:08;;;;;;;18.7;12.45;;;;;;;1.93;100;95120.11;;;;
2021/03/16 01:59:09;;;;;;;18.7;12.45;;;;;;;1.93;100;95120.11;;;;
2021/03/16 02:00:15;;;;;;;18.7;12.45;;;;;;;1.93;100;95120.11;;;;
2021/03/16 02:01:17;;;;;;;18.7;12.45;;;;;;;1.93;100;95120.11;;;;
2021/03/16 02:02:17;;;;;;;18.7;12.45;;;;;;;1.93;100;95120.11;;;;
2021/03/16 02:03:18;;;;;;;18.7;12.45;;;;;;;1.93;100;95120.11;;;;
2021/03/16 02:04:19;;;;;;;18.7;12.45;;;;;;;1.93;100;95120.11;;;;
2021/03/16 02:05:19;;;;;;;18.7;12.45;;;;;;;1.93;100;95120.11;;;;
2021/03/16 02:06:20;;;;;;;18.7;12.45;;;;;;;1.93;100;95120.11;;;;
2021/03/16 02:07:41;;;;;;;21;11.85;;;;;;;1.93;100;95128.09;;;;
2021/03/16 02:08:50;;;;;;;21;11.85;;;;;;;1.93;100;95128.09;;;;
2021/03/16 02:10:02;;;;;;;21;11.85;;;;;;;1.93;100;95128.09;;;;
2021/03/16 02:11:10;;;;;;;21;11.85;;;;;;;1.93;100;95128.09;;;;
2021/03/16 02:12:16;;;;;;;21;11.85;;;;;;;1.93;100;95128.09;;;;
2021/03/16 02:13:23;;;;;;;21;11.85;;;;;;;1.93;100;95128.09;;;;
2021/03/16 02:14:32;;;;;;;21;11.85;;;;;;;1.93;100;95128.09;;;;
2021/03/16 02:15:36;;;;;;;21;11.85;;;;;;;1.93;100;95128.09;;;;
2021/03/16 02:16:39;;;;;;;21;11.85;;;;;;;1.93;100;95128.09;;;;
2021/03/16 02:17:46;;;;;;;21;11.85;;;;;;;1.93;100;95128.09;;;;
2021/03/16 02:18:52;;;;;;;18.95;12.2;;;;;;;1.9;100;95133.38;;;;
2021/03/16 02:19:57;;;;;;;18.95;12.2;;;;;;;1.9;100;95133.38;;;;
2021/03/16 02:21:14;;;;;;;18.95;12.2;;;;;;;1.9;100;95133.38;;;;
2021/03/16 02:22:19;;;;;;;18.95;12.2;;;;;;;1.9;100;95133.38;;;;
2021/03/16 02:23:23;;;;;;;18.95;12.2;;;;;;;1.9;100;95133.38;;;;
2021/03/16 02:24:33;;;;;;;18.95;12.2;;;;;;;1.9;100;95133.38;;;;
2021/03/16 02:25:50;;;;;;;18.95;12.2;;;;;;;1.9;100;95133.38;;;;
2021/03/16 02:27:00;;;;;;;18.95;12.2;;;;;;;1.9;100;95133.38;;;;
2021/03/16 02:28:08;;;;;;;18.95;12.2;;;;;;;1.9;100;95133.38;;;;
2021/03/16 02:29:21;;;;;;;18.75;12.35;;;;;;;1.81;100;95137.16;;;;
2021/03/16 02:30:25;;;;;;;18.75;12.35;;;;;;;1.81;100;95137.16;;;;
2021/03/16 02:31:27;;;;;;;18.75;12.35;;;;;;;1.81;100;95137.16;;;;
2021/03/16 02:32:29;;;;;;;18.75;12.35;;;;;;;1.81;100;95137.16;;;;
2021/03/16 02:33:31;;;;;;;18.75;12.35;;;;;;;1.81;100;95137.16;;;;
2021/03/16 02:34:38;;;;;;;18.75;12.35;;;;;;;1.81;100;95137.16;;;;
2021/03/16 02:35:40;;;;;;;18.75;12.35;;;;;;;1.81;100;95137.16;;;;
2021/03/16 02:36:47;;;;;;;18.75;12.35;;;;;;;1.81;100;95137.16;;;;
2021/03/16 02:37:48;;;;;;;18.75;12.35;;;;;;;1.81;100;95137.16;;;;
2021/03/16 02:38:51;;;;;;;18.75;12.35;;;;;;;1.81;100;95137.16;;;;
2021/03/16 02:39:55;;;;;;;20.4;13.25;;;;;;;1.83;100;95146.28;;;;
2021/03/16 02:40:57;;;;;;;20.4;13.25;;;;;;;1.83;100;95146.28;;;;
2021/03/16 02:42:00;;;;;;;20.4;13.25;;;;;;;1.83;100;95146.28;;;;
2021/03/16 02:43:04;;;;;;;20.4;13.25;;;;;;;1.83;100;95146.28;;;;
2021/03/16 02:44:06;;;;;;;20.4;13.25;;;;;;;1.83;100;95146.28;;;;
2021/03/16 02:45:07;;;;;;;20.4;13.25;;;;;;;1.83;100;95146.28;;;;
2021/03/16 02:46:09;;;;;;;20.4;13.25;;;;;;;1.83;100;95146.28;;;;
2021/03/16 02:47:10;;;;;;;20.4;13.25;;;;;;;1.83;100;95146.28;;;;
2021/03/16 02:48:12;;;;;;;20.4;13.25;;;;;;;1.83;100;95146.28;;;;
2021/03/16 02:49:15;;;;;;;20.4;13.25;;;;;;;1.83;100;95146.28;;;;
2021/03/16 02:50:17;;;;;;;20.7;13.05;;;;;;;1.85;100;95147.77;;;;
2021/03/16 02:51:18;;;;;;;20.7;13.05;;;;;;;1.85;100;95147.77;;;;
2021/03/16 02:52:18;;;;;;;20.7;13.05;;;;;;;1.85;100;95147.77;;;;
2021/03/16 02:53:21;;;;;;;20.7;13.05;;;;;;;1.85;100;95147.77;;;;
2021/03/16 02:54:22;;;;;;;20.7;13.05;;;;;;;1.85;100;95147.77;;;;
2021/03/16 02:55:24;;;;;;;20.7;13.05;;;;;;;1.85;100;95147.77;;;;
2021/03/16 02:56:25;;;;;;;20.7;13.05;;;;;;;1.85;100;95147.77;;;;
2021/03/16 02:57:28;;;;;;;20.7;13.05;;;;;;;1.85;100;95147.77;;;;
2021/03/16 02:58:30;;;;;;;20.7;13.05;;;;;;;1.85;100;95147.77;;;;
2021/03/16 02:59:33;;;;;;;20.7;13.05;;;;;;;1.85;100;95147.77;;;;
2021/03/16 03:00:36;;;;;;;20.7;13.05;;;;;;;1.85;100;95147.77;;;;
2021/03/16 03:01:38;;;;;;;19.95;12.65;;;;;;;1.86;100;95157.87;;;;
2021/03/16 03:02:39;;;;;;;19.95;12.65;;;;;;;1.86;100;95157.87;;;;
2021/03/16 03:03:40;;;;;;;19.95;12.65;;;;;;;1.86;100;95157.87;;;;
2021/03/16 03:04:44;;;;;;;19.95;12.65;;;;;;;1.86;100;95157.87;;;;
2021/03/16 03:05:47;;;;;;;19.95;12.65;;;;;;;1.86;100;95157.87;;;;
2021/03/16 03:06:50;;;;;;;19.95;12.65;;;;;;;1.86;100;95157.87;;;;
2021/03/16 03:07:51;;;;;;;19.95;12.65;;;;;;;1.86;100;95157.87;;;;
2021/03/16 03:08:55;;;;;;;19.95;12.65;;;;;;;1.86;100;95157.87;;;;
2021/03/16 03:09:55;;;;;;;19.95;12.65;;;;;;;1.86;100;95157.87;;;;
2021/03/16 03:10:56;;;;;;;19.95;12.65;;;;;;;1.86;100;95157.87;;;;
2021/03/16 03:11:57;;;;;;;21.15001;12.45;;;;;;;1.89;100;95165.52;;;;
2021/03/16 03:12:59;;;;;;;21.15001;12.45;;;;;;;1.89;100;95165.52;;;;
2021/03/16 03:13:59;;;;;;;21.15001;12.45;;;;;;;1.89;100;95165.52;;;;
2021/03/16 03:15:03;;;;;;;21.15001;12.45;;;;;;;1.89;100;95165.52;;;;
2021/03/16 03:16:06;;;;;;;21.15001;12.45;;;;;;;1.89;100;95165.52;;;;
2021/03/16 03:17:07;;;;;;;21.15001;12.45;;;;;;;1.89;100;95165.52;;;;
2021/03/16 03:18:09;;;;;;;21.15001;12.45;;;;;;;1.89;100;95165.52;;;;
2021/03/16 03:19:09;;;;;;;21.15001;12.45;;;;;;;1.89;100;95165.52;;;;
2021/03/16 03:20:10;;;;;;;21.15001;12.45;;;;;;;1.89;100;95165.52;;;;
2021/03/16 03:21:13;;;;;;;21.15001;12.45;;;;;;;1.89;100;95165.52;;;;
2021/03/16 03:22:16;;;;;;;17.9;11;;;;;;;1.91;100;95174.53;;;;
2021/03/16 03:23:23;;;;;;;17.9;11;;;;;;;1.91;100;95174.53;;;;
2021/03/16 03:24:27;;;;;;;17.9;11;;;;;;;1.91;100;95174.53;;;;
2021/03/16 03:25:33;;;;;;;17.9;11;;;;;;;1.91;100;95174.53;;;;
2021/03/16 03:26:41;;;;;;;17.9;11;;;;;;;1.91;100;95174.53;;;;
2021/03/16 03:27:55;;;;;;;17.9;11;;;;;;;1.91;100;95174.53;;;;
2021/03/16 03:29:00;;;;;;;17.9;11;;;;;;;1.91;100;95174.53;;;;
2021/03/16 03:30:01;;;;;;;17.9;11;;;;;;;1.91;100;95174.53;;;;
2021/03/16 03:31:04;;;;;;;17.9;11;;;;;;;1.91;100;95174.53;;;;
2021/03/16 03:32:06;;;;;;;17.9;11;;;;;;;1.91;100;95174.53;;;;
2021/03/16 03:33:09;;;;;;;20.2;11.95;;;;;;;1.92;100;95188.59;;;;
2021/03/16 03:34:11;;;;;;;20.2;11.95;;;;;;;1.92;100;95188.59;;;;
2021/03/16 03:35:14;;;;;;;20.2;11.95;;;;;;;1.92;100;95188.59;;;;
2021/03/16 03:36:16;;;;;;;20.2;11.95;;;;;;;1.92;100;95188.59;;;;
2021/03/16 03:37:17;;;;;;;20.2;11.95;;;;;;;1.92;100;95188.59;;;;
2021/03/16 03:38:21;;;;;;;20.2;11.95;;;;;;;1.92;100;95188.59;;;;
2021/03/16 03:39:24;;;;;;;20.2;11.95;;;;;;;1.92;100;95188.59;;;;
2021/03/16 03:40:26;;;;;;;20.2;11.95;;;;;;;1.92;100;95188.59;;;;
2021/03/16 03:41:28;;;;;;;20.2;11.95;;;;;;;1.92;100;95188.59;;;;
2021/03/16 03:42:29;;;;;;;20.2;11.95;;;;;;;1.92;100;95188.59;;;;
2021/03/16 03:43:31;;;;;;;20.35;13.1;;;;;;;1.94;100;95183.91;;;;
2021/03/16 03:44:33;;;;;;;20.35;13.1;;;;;;;1.94;100;95183.91;;;;
2021/03/16 03:45:34;;;;;;;20.35;13.1;;;;;;;1.94;100;95183.91;;;;
2021/03/16 03:46:37;;;;;;;20.35;13.1;;;;;;;1.94;100;95183.91;;;;
2021/03/16 03:47:39;;;;;;;20.35;13.1;;;;;;;1.94;100;95183.91;;;;
2021/03/16 03:48:41;;;;;;;20.35;13.1;;;;;;;1.94;100;95183.91;;;;
2021/03/16 03:49:44;;;;;;;20.35;13.1;;;;;;;1.94;100;95183.91;;;;
2021/03/16 03:50:45;;;;;;;20.35;13.1;;;;;;;1.94;100;95183.91;;;;
2021/03/16 03:51:50;;;;;;;20.35;13.1;;;;;;;1.94;100;95183.91;;;;
2021/03/16 03:52:54;;;;;;;20.35;13.1;;;;;;;1.94;100;95183.91;;;;
2021/03/16 03:53:55;;;;;;;20.35;13.1;;;;;;;1.94;100;95183.91;;;;
2021/03/16 03:54:58;;;;;;;16.65;10.5;;;;;;;1.86;100;95198.64;;;;
2021/03/16 03:55:59;;;;;;;16.65;10.5;;;;;;;1.86;100;95198.64;;;;
2021/03/16 03:57:01;;;;;;;16.65;10.5;;;;;;;1.86;100;95198.64;;;;
2021/03/16 03:58:03;;;;;;;16.65;10.5;;;;;;;1.86;100;95198.64;;;;
2021/03/16 03:59:05;;;;;;;16.65;10.5;;;;;;;1.86;100;95198.64;;;;
2021/03/16 04:00:06;;;;;;;16.65;10.5;;;;;;;1.86;100;95198.64;;;;
2021/03/16 04:01:11;;;;;;;16.65;10.5;;;;;;;1.86;100;95198.64;;;;
2021/03/16 04:02:13;;;;;;;16.65;10.5;;;;;;;1.86;100;95198.64;;;;
2021/03/16 04:03:15;;;;;;;16.65;10.5;;;;;;;1.86;100;95198.64;;;;
2021/03/16 04:04:16;;;;;;;16.65;10.5;;;;;;;1.86;100;95198.64;;;;
2021/03/16 04:05:17;;;;;;;17.65;10.8;;;;;;;1.74;100;95211.27;;;;
2021/03/16 04:06:19;;;;;;;17.65;10.8;;;;;;;1.74;100;95211.27;;;;
2021/03/16 04:07:22;;;;;;;17.65;10.8;;;;;;;1.74;100;95211.27;;;;
2021/03/16 04:08:22;;;;;;;17.65;10.8;;;;;;;1.74;100;95211.27;;;;
2021/03/16 04:09:23;;;;;;;17.65;10.8;;;;;;;1.74;100;95211.27;;;;
2021/03/16 04:10:24;;;;;;;17.65;10.8;;;;;;;1.74;100;95211.27;;;;
2021/03/16 04:11:25;;;;;;;17.65;10.8;;;;;;;1.74;100;95211.27;;;;
2021/03/16 04:12:26;;;;;;;17.65;10.8;;;;;;;1.74;100;95211.27;;;;
2021/03/16 04:13:26;;;;;;;17.65;10.8;;;;;;;1.74;100;95211.27;;;;
2021/03/16 04:14:27;;;;;;;17.65;10.8;;;;;;;1.74;100;95211.27;;;;
2021/03/16 04:15:29;;;;;;;17.65;10.8;;;;;;;1.74;100;95211.27;;;;
2021/03/16 04:16:31;;;;;;;17.05;10.55;;;;;;;1.64;100;95223.92;;;;
2021/03/16 04:17:32;;;;;;;17.05;10.55;;;;;;;1.64;100;95223.92;;;;
2021/03/16 04:18:33;;;;;;;17.05;10.55;;;;;;;1.64;100;95223.92;;;;
2021/03/16 04:19:34;;;;;;;17.05;10.55;;;;;;;1.64;100;95223.92;;;;
2021/03/16 04:20:36;;;;;;;17.05;10.55;;;;;;;1.64;100;95223.92;;;;
2021/03/16 04:21:37;;;;;;;17.05;10.55;;;;;;;1.64;100;95223.92;;;;
2021/03/16 04:22:38;;;;;;;17.05;10.55;;;;;;;1.64;100;95223.92;;;;
2021/03/16 04:23:40;;;;;;;17.05;10.55;;;;;;;1.64;100;95223.92;;;;
2021/03/16 04:24:41;;;;;;;17.05;10.55;;;;;;;1.64;100;95223.92;;;;
2021/03/16 04:25:42;;;;;;;17.05;10.55;;;;;;;1.64;100;95223.92;;;;
2021/03/16 04:26:43;;;;;;;21.55;10.95;;;;;;;1.57;100;95230.98;;;;
2021/03/16 04:27:43;;;;;;;21.55;10.95;;;;;;;1.57;100;95230.98;;;;
2021/03/16 04:28:44;;;;;;;21.55;10.95;;;;;;;1.57;100;95230.98;;;;
2021/03/16 04:29:45;;;;;;;21.55;10.95;;;;;;;1.57;100;95230.98;;;;
2021/03/16 04:30:45;;;;;;;21.55;10.95;;;;;;;1.57;100;95230.98;;;;
2021/03/16 04:31:46;;;;;;;21.55;10.95;;;;;;;1.57;100;95230.98;;;;
2021/03/16 04:32:46;;;;;;;21.55;10.95;;;;;;;1.57;100;95230.98;;;;
2021/03/16 04:33:47;;;;;;;21.55;10.95;;;;;;;1.57;100;95230.98;;;;
2021/03/16 04:34:47;;;;;;;21.55;10.95;;;;;;;1.57;100;95230.98;;;;
2021/03/16 04:35:48;;;;;;;21.55;10.95;;;;;;;1.57;100;95230.98;;;;
2021/03/16 04:36:49;;;;;;;21.55;10.95;;;;;;;1.57;100;95230.98;;;;
2021/03/16 04:37:49;;;;;;;19.25;10.35;;;;;;;1.59;100;95237.87;;;;
2021/03/16 04:38:50;;;;;;;19.25;10.35;;;;;;;1.59;100;95237.87;;;;
2021/03/16 04:39:50;;;;;;;19.25;10.35;;;;;;;1.59;100;95237.87;;;;
2021/03/16 04:40:51;;;;;;;19.25;10.35;;;;;;;1.59;100;95237.87;;;;
2021/03/16 04:41:51;;;;;;;19.25;10.35;;;;;;;1.59;100;95237.87;;;;
2021/03/16 04:42:52;;;;;;;19.25;10.35;;;;;;;1.59;100;95237.87;;;;
2021/03/16 04:43:52;;;;;;;19.25;10.35;;;;;;;1.59;100;95237.87;;;;
2021/03/16 04:44:53;;;;;;;19.25;10.35;;;;;;;1.59;100;95237.87;;;;
2021/03/16 04:45:53;;;;;;;19.25;10.35;;;;;;;1.59;100;95237.87;;;;
2021/03/16 04:46:54;;;;;;;19.25;10.35;;;;;;;1.59;100;95237.87;;;;
2021/03/16 04:47:55;;;;;;;21.75;10.6;;;;;;;1.57;100;95251.84;;;;
2021/03/16 04:48:55;;;;;;;21.75;10.6;;;;;;;1.57;100;95251.84;;;;
2021/03/16 04:49:56;;;;;;;21.75;10.6;;;;;;;1.57;100;95251.84;;;;
2021/03/16 04:50:56;;;;;;;21.75;10.6;;;;;;;1.57;100;95251.84;;;;
2021/03/16 04:51:57;;;;;;;21.75;10.6;;;;;;;1.57;100;95251.84;;;;
2021/03/16 04:52:57;;;;;;;21.75;10.6;;;;;;;1.57;100;95251.84;;;;
2021/03/16 04:53:58;;;;;;;21.75;10.6;;;;;;;1.57;100;95251.84;;;;
2021/03/16 04:54:58;;;;;;;21.75;10.6;;;;;;;1.57;100;95251.84;;;;
2021/03/16 04:55:59;;;;;;;21.75;10.6;;;;;;;1.57;100;95251.84;;;;
2021/03/16 04:56:59;;;;;;;21.75;10.6;;;;;;;1.57;100;95251.84;;;;
2021/03/16 04:58:00;;;;;;;21.75;10.6;;;;;;;1.57;100;95251.84;;;;
2021/03/16 04:59:00;;;;;;;18.25;9.5;;;;;;;1.56;100;95256.86;;;;
2021/03/16 05:00:01;;;;;;;18.25;9.5;;;;;;;1.56;100;95256.86;;;;
2021/03/16 05:01:04;;;;;;;18.25;9.5;;;;;;;1.56;100;95256.86;;;;
2021/03/16 05:02:04;;;;;;;18.25;9.5;;;;;;;1.56;100;95256.86;;;;
2021/03/16 05:03:05;;;;;;;18.25;9.5;;;;;;;1.56;100;95256.86;;;;
2021/03/16 05:04:06;;;;;;;18.25;9.5;;;;;;;1.56;100;95256.86;;;;
2021/03/16 05:05:06;;;;;;;18.25;9.5;;;;;;;1.56;100;95256.86;;;;
2021/03/16 05:06:08;;;;;;;18.25;9.5;;;;;;;1.56;100;95256.86;;;;
2021/03/16 05:07:09;;;;;;;18.25;9.5;;;;;;;1.56;100;95256.86;;;;
2021/03/16 05:08:09;;;;;;;18.25;9.5;;;;;;;1.56;100;95256.86;;;;
2021/03/16 05:09:12;;;;;;;20.05;8.550001;;;;;;;1.6;100;95262.95;;;;
2021/03/16 05:10:12;;;;;;;20.05;8.550001;;;;;;;1.6;100;95262.95;;;;
2021/03/16 05:11:14;;;;;;;20.05;8.550001;;;;;;;1.6;100;95262.95;;;;
2021/03/16 05:12:14;;;;;;;20.05;8.550001;;;;;;;1.6;100;95262.95;;;;
2021/03/16 05:13:15;;;;;;;20.05;8.550001;;;;;;;1.6;100;95262.95;;;;
2021/03/16 05:14:16;;;;;;;20.05;8.550001;;;;;;;1.6;100;95262.95;;;;
2021/03/16 05:15:16;;;;;;;20.05;8.550001;;;;;;;1.6;100;95262.95;;;;
2021/03/16 05:16:17;;;;;;;20.05;8.550001;;;;;;;1.6;100;95262.95;;;;
2021/03/16 05:17:18;;;;;;;20.05;8.550001;;;;;;;1.6;100;95262.95;;;;
2021/03/16 05:18:18;;;;;;;20.05;8.550001;;;;;;;1.6;100;95262.95;;;;
2021/03/16 05:19:19;;;;;;;20.05;8.550001;;;;;;;1.6;100;95262.95;;;;
2021/03/16 05:20:19;;;;;;;19.1;9.299999;;;;;;;1.62;100;95281.39;;;;
2021/03/16 05:21:20;;;;;;;19.1;9.299999;;;;;;;1.62;100;95281.39;;;;
2021/03/16 05:22:21;;;;;;;19.1;9.299999;;;;;;;1.62;100;95281.39;;;;
2021/03/16 05:23:21;;;;;;;19.1;9.299999;;;;;;;1.62;100;95281.39;;;;
2021/03/16 05:24:22;;;;;;;19.1;9.299999;;;;;;;1.62;100;95281.39;;;;
2021/03/16 05:25:22;;;;;;;19.1;9.299999;;;;;;;1.62;100;95281.39;;;;
2021/03/16 05:26:23;;;;;;;19.1;9.299999;;;;;;;1.62;100;95281.39;;;;
2021/03/16 05:27:24;;;;;;;19.1;9.299999;;;;;;;1.62;100;95281.39;;;;
2021/03/16 05:28:24;;;;;;;19.1;9.299999;;;;;;;1.62;100;95281.39;;;;
2021/03/16 05:29:25;;;;;;;19.1;9.299999;;;;;;;1.62;100;95281.39;;;;
2021/03/16 05:30:25;;;;;;;13.55;7.45;;;;;;;1.64;100;95293.21;;;;
2021/03/16 05:31:26;;;;;;;13.55;7.45;;;;;;;1.64;100;95293.21;;;;
2021/03/16 05:32:27;;;;;;;13.55;7.45;;;;;;;1.64;100;95293.21;;;;
2021/03/16 05:33:27;;;;;;;13.55;7.45;;;;;;;1.64;100;95293.21;;;;
2021/03/16 05:34:28;;;;;;;13.55;7.45;;;;;;;1.64;100;95293.21;;;;
2021/03/16 05:35:29;;;;;;;13.55;7.45;;;;;;;1.64;100;95293.21;;;;
2021/03/16 05:36:30;;;;;;;13.55;7.45;;;;;;;1.64;100;95293.21;;;;
2021/03/16 05:37:30;;;;;;;13.55;7.45;;;;;;;1.64;100;95293.21;;;;
2021/03/16 05:38:31;;;;;;;13.55;7.45;;;;;;;1.64;100;95293.21;;;;
2021/03/16 05:39:31;;;;;;;13.55;7.45;;;;;;;1.64;100;95293.21;;;;
2021/03/16 05:40:33;;;;;;;13.55;7.45;;;;;;;1.64;100;95293.21;;;;
2021/03/16 05:41:34;;;;;;;14.8;7.750001;;;;;;;1.66;100;95294.25;;;;
2021/03/16 05:42:36;;;;;;;14.8;7.750001;;;;;;;1.66;100;95294.25;;;;
2021/03/16 05:43:37;;;;;;;14.8;7.750001;;;;;;;1.66;100;95294.25;;;;
2021/03/16 05:44:38;;;;;;;14.8;7.750001;;;;;;;1.66;100;95294.25;;;;
2021/03/16 05:45:38;;;;;;;14.8;7.750001;;;;;;;1.66;100;95294.25;;;;
2021/03/16 05:46:39;;;;;;;14.8;7.750001;;;;;;;1.66;100;95294.25;;;;
2021/03/16 05:47:40;;;;;;;14.8;7.750001;;;;;;;1.66;100;95294.25;;;;
2021/03/16 05:48:43;;;;;;;14.8;7.750001;;;;;;;1.66;100;95294.25;;;;
2021/03/16 05:49:50;;;;;;;14.8;7.750001;;;;;;;1.66;100;95294.25;;;;
2021/03/16 05:50:52;;;;;;;14.8;7.750001;;;;;;;1.66;100;95294.25;;;;
2021/03/16 05:51:53;;;;;;;17.5;8.349999;;;;;;;1.62;100;95304.42;;;;
2021/03/16 05:52:54;;;;;;;17.5;8.349999;;;;;;;1.62;100;95304.42;;;;
2021/03/16 05:53:55;;;;;;;17.5;8.349999;;;;;;;1.62;100;95304.42;;;;
2021/03/16 05:54:56;;;;;;;17.5;8.349999;;;;;;;1.62;100;95304.42;;;;
2021/03/16 05:55:58;;;;;;;17.5;8.349999;;;;;;;1.62;100;95304.42;;;;
2021/03/16 05:56:58;;;;;;;17.5;8.349999;;;;;;;1.62;100;95304.42;;;;
2021/03/16 05:58:00;;;;;;;17.5;8.349999;;;;;;;1.62;100;95304.42;;;;
2021/03/16 05:59:01;;;;;;;17.5;8.349999;;;;;;;1.62;100;95304.42;;;;
2021/03/16 06:00:03;;;;;;;17.5;8.349999;;;;;;;1.62;100;95304.42;;;;
2021/03/16 06:01:06;;;;;;;17.5;8.349999;;;;;;;1.62;100;95304.42;;;;
2021/03/16 06:02:07;;;;;;;17.5;8.349999;;;;;;;1.62;100;95304.42;;;;
2021/03/16 06:03:07;;;;;;;15.7;8.349999;;;;;;;1.7;100;95327.06;;;;
2021/03/16 06:04:08;;;;;;;15.7;8.349999;;;;;;;1.7;100;95327.06;;;;
2021/03/16 06:05:08;;;;;;;15.7;8.349999;;;;;;;1.7;100;95327.06;;;;
2021/03/16 06:06:10;;;;;;;15.7;8.349999;;;;;;;1.7;100;95327.06;;;;
2021/03/16 06:07:11;;;;;;;15.7;8.349999;;;;;;;1.7;100;95327.06;;;;
2021/03/16 06:08:11;;;;;;;15.7;8.349999;;;;;;;1.7;100;95327.06;;;;
2021/03/16 06:09:12;;;;;;;15.7;8.349999;;;;;;;1.7;100;95327.06;;;;
2021/03/16 06:10:12;;;;;;;15.7;8.349999;;;;;;;1.7;100;95327.06;;;;
2021/03/16 06:11:17;;;;;;;15.7;8.349999;;;;;;;1.7;100;95327.06;;;;
2021/03/16 06:12:18;;;;;;;15.7;8.349999;;;;;;;1.7;100;95327.06;;;;